sensor_id;sensor_type;location;lat;lon;timestamp;temperature;humidity
8780;DHT22;62328;51.19929245;4.42130175;2023-02-15T00:01:58;6.80;99.90
8780;DHT22;62328;51.19929245;4.42130175;2023-02-15T00:04:25;6.70;99.90
8780;DHT22;62328;51.19929245;4.42130175;2023-02-15T00:07:13;6.70;99.90
8780;DHT22;62328;51.19929245;4.42130175;2023-02-15T00:09:40;6.70;99.90
8780;DHT22;62328;51.19929245;4.42130175;2023-02-15T00:12:08;6.70;99.90
8780;DHT22;62328;51.19929245;4.42130175;2023-02-15T00:14:35;6.70;99.90
8780;DHT22;62328;51.19929245;4.42130175;2023-02-15T00:17:02;6.70;99.90
8780;DHT22;62328;51.19929245;4.42130175;2023-02-15T00:19:28;6.70;99.90
8780;DHT22;62328;51.19929245;4.42130175;2023-02-15T00:21:55;6.70;99.90
8780;DHT22;62328;51.19929245;4.42130175;2023-02-15T00:24:23;6.60;99.90
8780;DHT22;62328;51.19929245;4.42130175;2023-02-15T00:26:50;6.70;99.90
8780;DHT22;62328;51.19929245;4.42130175;2023-02-15T00:29:18;6.60;99.90
8780;DHT22;62328;51.19929245;4.42130175;2023-02-15T00:31:45;6.60;99.90
8780;DHT22;62328;51.19929245;4.42130175;2023-02-15T00:34:16;6.60;99.90
8780;DHT22;62328;51.19929245;4.42130175;2023-02-15T00:36:43;6.60;99.90
8780;DHT22;62328;51.19929245;4.42130175;2023-02-15T00:39:10;6.60;99.90
8780;DHT22;62328;51.19929245;4.42130175;2023-02-15T00:41:38;6.60;99.90
8780;DHT22;62328;51.19929245;4.42130175;2023-02-15T00:44:06;6.50;99.90
8780;DHT22;62328;51.19929245;4.42130175;2023-02-15T00:46:33;6.60;99.90
8780;DHT22;62328;51.19929245;4.42130175;2023-02-15T00:49:00;6.60;99.90
8780;DHT22;62328;51.19929245;4.42130175;2023-02-15T00:51:27;6.50;99.90
8780;DHT22;62328;51.19929245;4.42130175;2023-02-15T00:53:53;6.60;99.90
8780;DHT22;62328;51.19929245;4.42130175;2023-02-15T00:56:20;6.50;99.90
8780;DHT22;62328;51.19929245;4.42130175;2023-02-15T00:58:48;6.50;99.90
8780;DHT22;62328;51.19929245;4.42130175;2023-02-15T01:01:17;6.60;99.90
8780;DHT22;62328;51.19929245;4.42130175;2023-02-15T01:03:45;6.60;99.90
8780;DHT22;62328;51.19929245;4.42130175;2023-02-15T01:06:13;6.50;99.90
8780;DHT22;62328;51.19929245;4.42130175;2023-02-15T01:08:40;6.50;99.90
8780;DHT22;62328;51.19929245;4.42130175;2023-02-15T01:11:10;6.50;99.90
8780;DHT22;62328;51.19929245;4.42130175;2023-02-15T01:13:38;6.50;99.90
8780;DHT22;62328;51.19929245;4.42130175;2023-02-15T01:16:06;6.50;99.90
8780;DHT22;62328;51.19929245;4.42130175;2023-02-15T01:18:33;6.50;99.90
8780;DHT22;62328;51.19929245;4.42130175;2023-02-15T01:21:02;6.40;99.90
8780;DHT22;62328;51.19929245;4.42130175;2023-02-15T01:23:34;6.40;99.90
8780;DHT22;62328;51.19929245;4.42130175;2023-02-15T01:26:01;6.50;99.90
8780;DHT22;62328;51.19929245;4.42130175;2023-02-15T01:28:28;6.50;99.90
8780;DHT22;62328;51.19929245;4.42130175;2023-02-15T01:30:55;6.50;99.90
8780;DHT22;62328;51.19929245;4.42130175;2023-02-15T01:33:23;6.40;99.90
8780;DHT22;62328;51.19929245;4.42130175;2023-02-15T01:35:56;6.40;99.90
8780;DHT22;62328;51.19929245;4.42130175;2023-02-15T01:38:22;6.40;99.90
8780;DHT22;62328;51.19929245;4.42130175;2023-02-15T01:40:51;6.40;99.90
8780;DHT22;62328;51.19929245;4.42130175;2023-02-15T01:43:18;6.40;99.90
8780;DHT22;62328;51.19929245;4.42130175;2023-02-15T01:45:46;6.40;99.90
8780;DHT22;62328;51.19929245;4.42130175;2023-02-15T01:48:19;6.50;99.90
8780;DHT22;62328;51.19929245;4.42130175;2023-02-15T01:50:50;6.50;99.90
8780;DHT22;62328;51.19929245;4.42130175;2023-02-15T01:53:20;6.50;99.90
8780;DHT22;62328;51.19929245;4.42130175;2023-02-15T01:55:52;6.40;99.90
8780;DHT22;62328;51.19929245;4.42130175;2023-02-15T01:58:21;6.50;99.90
8780;DHT22;62328;51.19929245;4.42130175;2023-02-15T02:00:48;6.50;99.90
8780;DHT22;62328;51.19929245;4.42130175;2023-02-15T02:03:15;6.50;99.90
8780;DHT22;62328;51.19929245;4.42130175;2023-02-15T02:05:42;6.50;99.90
8780;DHT22;62328;51.19929245;4.42130175;2023-02-15T02:08:10;6.50;99.90
8780;DHT22;62328;51.19929245;4.42130175;2023-02-15T02:10:38;6.40;99.90
8780;DHT22;62328;51.19929245;4.42130175;2023-02-15T02:13:06;6.40;99.90
8780;DHT22;62328;51.19929245;4.42130175;2023-02-15T02:15:39;6.40;99.90
8780;DHT22;62328;51.19929245;4.42130175;2023-02-15T02:18:16;6.40;99.90
8780;DHT22;62328;51.19929245;4.42130175;2023-02-15T02:21:30;6.30;99.90
8780;DHT22;62328;51.19929245;4.42130175;2023-02-15T02:24:34;6.30;99.90
8780;DHT22;62328;51.19929245;4.42130175;2023-02-15T02:27:33;6.30;99.90
8780;DHT22;62328;51.19929245;4.42130175;2023-02-15T02:30:30;6.20;99.90
8780;DHT22;62328;51.19929245;4.42130175;2023-02-15T02:33:31;6.20;99.90
8780;DHT22;62328;51.19929245;4.42130175;2023-02-15T02:36:08;6.20;99.90
8780;DHT22;62328;51.19929245;4.42130175;2023-02-15T02:38:48;6.20;99.90
8780;DHT22;62328;51.19929245;4.42130175;2023-02-15T02:41:30;6.20;99.90
8780;DHT22;62328;51.19929245;4.42130175;2023-02-15T02:44:04;6.10;99.90
8780;DHT22;62328;51.19929245;4.42130175;2023-02-15T02:46:38;6.10;99.90
8780;DHT22;62328;51.19929245;4.42130175;2023-02-15T02:49:09;6.10;99.90
8780;DHT22;62328;51.19929245;4.42130175;2023-02-15T02:51:36;6.10;99.90
8780;DHT22;62328;51.19929245;4.42130175;2023-02-15T02:54:05;6.10;99.90
8780;DHT22;62328;51.19929245;4.42130175;2023-02-15T02:56:36;6.10;99.90
8780;DHT22;62328;51.19929245;4.42130175;2023-02-15T02:59:07;6.10;99.90
8780;DHT22;62328;51.19929245;4.42130175;2023-02-15T03:01:39;6.00;99.90
8780;DHT22;62328;51.19929245;4.42130175;2023-02-15T03:04:12;6.10;99.90
8780;DHT22;62328;51.19929245;4.42130175;2023-02-15T03:06:45;6.00;99.90
8780;DHT22;62328;51.19929245;4.42130175;2023-02-15T03:09:15;6.00;99.90
8780;DHT22;62328;51.19929245;4.42130175;2023-02-15T03:11:44;5.90;99.90
8780;DHT22;62328;51.19929245;4.42130175;2023-02-15T03:14:12;5.90;99.90
8780;DHT22;62328;51.19929245;4.42130175;2023-02-15T03:16:40;5.90;99.90
8780;DHT22;62328;51.19929245;4.42130175;2023-02-15T03:19:14;5.90;99.90
8780;DHT22;62328;51.19929245;4.42130175;2023-02-15T03:21:47;5.90;99.90
8780;DHT22;62328;51.19929245;4.42130175;2023-02-15T03:24:19;5.90;99.90
8780;DHT22;62328;51.19929245;4.42130175;2023-02-15T03:26:49;5.90;99.90
8780;DHT22;62328;51.19929245;4.42130175;2023-02-15T03:29:18;5.80;99.90
8780;DHT22;62328;51.19929245;4.42130175;2023-02-15T03:31:49;5.80;99.90
8780;DHT22;62328;51.19929245;4.42130175;2023-02-15T03:34:19;5.70;99.90
8780;DHT22;62328;51.19929245;4.42130175;2023-02-15T03:36:50;5.70;99.90
8780;DHT22;62328;51.19929245;4.42130175;2023-02-15T03:39:22;5.70;99.90
8780;DHT22;62328;51.19929245;4.42130175;2023-02-15T03:41:58;5.70;99.90
8780;DHT22;62328;51.19929245;4.42130175;2023-02-15T03:44:29;5.80;99.90
8780;DHT22;62328;51.19929245;4.42130175;2023-02-15T03:47:01;5.70;99.90
8780;DHT22;62328;51.19929245;4.42130175;2023-02-15T03:49:36;5.80;99.90
8780;DHT22;62328;51.19929245;4.42130175;2023-02-15T03:52:05;5.80;99.90
8780;DHT22;62328;51.19929245;4.42130175;2023-02-15T03:54:33;5.80;99.90
8780;DHT22;62328;51.19929245;4.42130175;2023-02-15T03:57:14;5.80;99.90
8780;DHT22;62328;51.19929245;4.42130175;2023-02-15T04:00:00;5.70;99.90
8780;DHT22;62328;51.19929245;4.42130175;2023-02-15T04:02:53;5.70;99.90
8780;DHT22;62328;51.19929245;4.42130175;2023-02-15T04:05:24;5.70;99.90
8780;DHT22;62328;51.19929245;4.42130175;2023-02-15T04:07:51;5.80;99.90
8780;DHT22;62328;51.19929245;4.42130175;2023-02-15T04:10:18;5.80;99.90
8780;DHT22;62328;51.19929245;4.42130175;2023-02-15T04:13:02;5.80;99.90
8780;DHT22;62328;51.19929245;4.42130175;2023-02-15T04:15:29;5.70;99.90
8780;DHT22;62328;51.19929245;4.42130175;2023-02-15T04:18:13;5.70;99.90
8780;DHT22;62328;51.19929245;4.42130175;2023-02-15T04:20:45;5.70;99.90
8780;DHT22;62328;51.19929245;4.42130175;2023-02-15T04:23:29;5.70;99.90
8780;DHT22;62328;51.19929245;4.42130175;2023-02-15T04:26:13;5.60;99.90
8780;DHT22;62328;51.19929245;4.42130175;2023-02-15T04:28:40;5.60;99.90
8780;DHT22;62328;51.19929245;4.42130175;2023-02-15T04:31:07;5.60;99.90
8780;DHT22;62328;51.19929245;4.42130175;2023-02-15T04:33:34;5.60;99.90
8780;DHT22;62328;51.19929245;4.42130175;2023-02-15T04:36:03;5.60;99.90
8780;DHT22;62328;51.19929245;4.42130175;2023-02-15T04:38:30;5.50;99.90
8780;DHT22;62328;51.19929245;4.42130175;2023-02-15T04:40:57;5.50;99.90
8780;DHT22;62328;51.19929245;4.42130175;2023-02-15T04:43:23;5.50;99.90
8780;DHT22;62328;51.19929245;4.42130175;2023-02-15T04:45:50;5.50;99.90
8780;DHT22;62328;51.19929245;4.42130175;2023-02-15T04:48:17;5.40;99.90
8780;DHT22;62328;51.19929245;4.42130175;2023-02-15T04:50:44;5.40;99.90
8780;DHT22;62328;51.19929245;4.42130175;2023-02-15T04:53:13;5.30;99.90
8780;DHT22;62328;51.19929245;4.42130175;2023-02-15T04:55:42;5.40;99.90
8780;DHT22;62328;51.19929245;4.42130175;2023-02-15T04:58:08;5.30;99.90
8780;DHT22;62328;51.19929245;4.42130175;2023-02-15T05:00:35;5.30;99.90
8780;DHT22;62328;51.19929245;4.42130175;2023-02-15T05:03:03;5.30;99.90
8780;DHT22;62328;51.19929245;4.42130175;2023-02-15T05:05:30;5.40;99.90
8780;DHT22;62328;51.19929245;4.42130175;2023-02-15T05:07:56;5.30;99.90
8780;DHT22;62328;51.19929245;4.42130175;2023-02-15T05:10:25;5.30;99.90
8780;DHT22;62328;51.19929245;4.42130175;2023-02-15T05:12:51;5.30;99.90
8780;DHT22;62328;51.19929245;4.42130175;2023-02-15T05:15:18;5.40;99.90
8780;DHT22;62328;51.19929245;4.42130175;2023-02-15T05:17:45;5.40;99.90
8780;DHT22;62328;51.19929245;4.42130175;2023-02-15T05:20:12;5.40;99.90
8780;DHT22;62328;51.19929245;4.42130175;2023-02-15T05:22:39;5.40;99.90
8780;DHT22;62328;51.19929245;4.42130175;2023-02-15T05:25:07;5.40;99.90
8780;DHT22;62328;51.19929245;4.42130175;2023-02-15T05:27:54;5.40;99.90
8780;DHT22;62328;51.19929245;4.42130175;2023-02-15T05:30:38;5.40;99.90
8780;DHT22;62328;51.19929245;4.42130175;2023-02-15T05:33:06;5.40;99.90
8780;DHT22;62328;51.19929245;4.42130175;2023-02-15T05:35:33;5.40;99.90
8780;DHT22;62328;51.19929245;4.42130175;2023-02-15T05:38:00;5.50;99.90
8780;DHT22;62328;51.19929245;4.42130175;2023-02-15T05:40:27;5.40;99.90
8780;DHT22;62328;51.19929245;4.42130175;2023-02-15T05:42:55;5.40;99.90
8780;DHT22;62328;51.19929245;4.42130175;2023-02-15T05:45:22;5.40;99.90
8780;DHT22;62328;51.19929245;4.42130175;2023-02-15T05:47:49;5.40;99.90
8780;DHT22;62328;51.19929245;4.42130175;2023-02-15T05:50:16;5.30;99.90
8780;DHT22;62328;51.19929245;4.42130175;2023-02-15T05:52:43;5.40;99.90
8780;DHT22;62328;51.19929245;4.42130175;2023-02-15T05:55:10;5.40;99.90
8780;DHT22;62328;51.19929245;4.42130175;2023-02-15T05:57:37;5.30;99.90
8780;DHT22;62328;51.19929245;4.42130175;2023-02-15T06:00:07;5.30;99.90
8780;DHT22;62328;51.19929245;4.42130175;2023-02-15T06:02:35;5.30;99.90
8780;DHT22;62328;51.19929245;4.42130175;2023-02-15T06:05:02;5.20;99.90
8780;DHT22;62328;51.19929245;4.42130175;2023-02-15T06:07:30;5.20;99.90
8780;DHT22;62328;51.19929245;4.42130175;2023-02-15T06:09:57;5.20;99.90
8780;DHT22;62328;51.19929245;4.42130175;2023-02-15T06:12:24;5.20;99.90
8780;DHT22;62328;51.19929245;4.42130175;2023-02-15T06:14:51;5.10;99.90
8780;DHT22;62328;51.19929245;4.42130175;2023-02-15T06:17:19;5.10;99.90
8780;DHT22;62328;51.19929245;4.42130175;2023-02-15T06:19:47;5.10;99.90
8780;DHT22;62328;51.19929245;4.42130175;2023-02-15T06:22:14;5.00;99.90
8780;DHT22;62328;51.19929245;4.42130175;2023-02-15T06:24:41;5.10;99.90
8780;DHT22;62328;51.19929245;4.42130175;2023-02-15T06:27:08;5.10;99.90
8780;DHT22;62328;51.19929245;4.42130175;2023-02-15T06:29:35;5.00;99.90
8780;DHT22;62328;51.19929245;4.42130175;2023-02-15T06:32:02;5.00;99.90
8780;DHT22;62328;51.19929245;4.42130175;2023-02-15T06:34:31;5.00;99.90
8780;DHT22;62328;51.19929245;4.42130175;2023-02-15T06:36:58;5.00;99.90
8780;DHT22;62328;51.19929245;4.42130175;2023-02-15T06:39:25;5.00;99.90
8780;DHT22;62328;51.19929245;4.42130175;2023-02-15T06:41:52;5.00;99.90
8780;DHT22;62328;51.19929245;4.42130175;2023-02-15T06:44:18;5.00;99.90
8780;DHT22;62328;51.19929245;4.42130175;2023-02-15T06:46:45;5.00;99.90
8780;DHT22;62328;51.19929245;4.42130175;2023-02-15T06:49:12;5.00;99.90
8780;DHT22;62328;51.19929245;4.42130175;2023-02-15T06:51:41;4.90;99.90
8780;DHT22;62328;51.19929245;4.42130175;2023-02-15T06:54:08;4.90;99.90
8780;DHT22;62328;51.19929245;4.42130175;2023-02-15T06:56:35;4.90;99.90
8780;DHT22;62328;51.19929245;4.42130175;2023-02-15T06:59:02;4.90;99.90
8780;DHT22;62328;51.19929245;4.42130175;2023-02-15T07:01:29;4.90;99.90
8780;DHT22;62328;51.19929245;4.42130175;2023-02-15T07:03:55;4.90;99.90
8780;DHT22;62328;51.19929245;4.42130175;2023-02-15T07:06:22;4.90;99.90
8780;DHT22;62328;51.19929245;4.42130175;2023-02-15T07:08:52;4.90;99.90
8780;DHT22;62328;51.19929245;4.42130175;2023-02-15T07:11:19;4.90;99.90
8780;DHT22;62328;51.19929245;4.42130175;2023-02-15T07:14:03;5.00;99.90
8780;DHT22;62328;51.19929245;4.42130175;2023-02-15T07:16:30;5.20;99.90
8780;DHT22;62328;51.19929245;4.42130175;2023-02-15T07:18:59;5.30;99.90
8780;DHT22;62328;51.19929245;4.42130175;2023-02-15T07:21:26;5.40;99.90
8780;DHT22;62328;51.19929245;4.42130175;2023-02-15T07:23:56;5.40;99.90
8780;DHT22;62328;51.19929245;4.42130175;2023-02-15T07:26:23;5.40;99.90
8780;DHT22;62328;51.19929245;4.42130175;2023-02-15T07:28:50;5.50;99.90
8780;DHT22;62328;51.19929245;4.42130175;2023-02-15T07:31:17;5.50;99.90
8780;DHT22;62328;51.19929245;4.42130175;2023-02-15T07:33:43;5.60;99.90
8780;DHT22;62328;51.19929245;4.42130175;2023-02-15T07:36:10;5.70;99.90
8780;DHT22;62328;51.19929245;4.42130175;2023-02-15T07:38:40;5.70;99.90
8780;DHT22;62328;51.19929245;4.42130175;2023-02-15T07:41:12;5.70;99.90
8780;DHT22;62328;51.19929245;4.42130175;2023-02-15T07:43:40;5.70;99.90
8780;DHT22;62328;51.19929245;4.42130175;2023-02-15T07:46:09;5.70;99.90
8780;DHT22;62328;51.19929245;4.42130175;2023-02-15T07:48:37;5.80;99.90
8780;DHT22;62328;51.19929245;4.42130175;2023-02-15T07:51:07;5.80;99.90
8780;DHT22;62328;51.19929245;4.42130175;2023-02-15T07:53:35;5.90;99.90
8780;DHT22;62328;51.19929245;4.42130175;2023-02-15T07:56:05;5.90;99.90
8780;DHT22;62328;51.19929245;4.42130175;2023-02-15T07:58:34;6.00;99.90
8780;DHT22;62328;51.19929245;4.42130175;2023-02-15T08:01:22;6.10;99.90
8780;DHT22;62328;51.19929245;4.42130175;2023-02-15T08:03:50;6.10;99.90
8780;DHT22;62328;51.19929245;4.42130175;2023-02-15T08:06:17;6.10;99.90
8780;DHT22;62328;51.19929245;4.42130175;2023-02-15T08:08:44;6.20;99.90
8780;DHT22;62328;51.19929245;4.42130175;2023-02-15T08:11:16;6.20;99.90
8780;DHT22;62328;51.19929245;4.42130175;2023-02-15T08:13:56;6.10;99.90
8780;DHT22;62328;51.19929245;4.42130175;2023-02-15T08:16:25;6.20;99.90
8780;DHT22;62328;51.19929245;4.42130175;2023-02-15T08:18:53;6.20;99.90
8780;DHT22;62328;51.19929245;4.42130175;2023-02-15T08:21:21;6.20;99.90
8780;DHT22;62328;51.19929245;4.42130175;2023-02-15T08:23:48;6.20;99.90
8780;DHT22;62328;51.19929245;4.42130175;2023-02-15T08:26:15;6.30;99.90
8780;DHT22;62328;51.19929245;4.42130175;2023-02-15T08:28:42;6.40;99.90
8780;DHT22;62328;51.19929245;4.42130175;2023-02-15T08:31:12;6.40;99.90
8780;DHT22;62328;51.19929245;4.42130175;2023-02-15T08:33:41;6.40;99.90
8780;DHT22;62328;51.19929245;4.42130175;2023-02-15T08:36:10;6.40;99.90
8780;DHT22;62328;51.19929245;4.42130175;2023-02-15T08:38:38;6.40;99.90
8780;DHT22;62328;51.19929245;4.42130175;2023-02-15T08:41:13;6.40;99.90
8780;DHT22;62328;51.19929245;4.42130175;2023-02-15T08:43:40;6.50;99.90
8780;DHT22;62328;51.19929245;4.42130175;2023-02-15T08:46:08;6.50;99.90
8780;DHT22;62328;51.19929245;4.42130175;2023-02-15T08:48:36;6.60;99.90
8780;DHT22;62328;51.19929245;4.42130175;2023-02-15T08:51:08;6.70;99.90
8780;DHT22;62328;51.19929245;4.42130175;2023-02-15T08:53:36;6.70;99.90
8780;DHT22;62328;51.19929245;4.42130175;2023-02-15T08:56:03;6.80;99.90
8780;DHT22;62328;51.19929245;4.42130175;2023-02-15T08:58:30;6.80;99.90
8780;DHT22;62328;51.19929245;4.42130175;2023-02-15T09:00:57;6.80;99.90
8780;DHT22;62328;51.19929245;4.42130175;2023-02-15T09:03:25;7.00;99.90
8780;DHT22;62328;51.19929245;4.42130175;2023-02-15T09:05:58;7.00;99.90
8780;DHT22;62328;51.19929245;4.42130175;2023-02-15T09:08:25;7.10;99.90
8780;DHT22;62328;51.19929245;4.42130175;2023-02-15T09:10:52;7.20;99.90
8780;DHT22;62328;51.19929245;4.42130175;2023-02-15T09:13:19;7.20;99.90
8780;DHT22;62328;51.19929245;4.42130175;2023-02-15T09:15:47;7.30;99.90
8780;DHT22;62328;51.19929245;4.42130175;2023-02-15T09:18:13;7.40;99.90
8780;DHT22;62328;51.19929245;4.42130175;2023-02-15T09:20:44;7.40;99.90
8780;DHT22;62328;51.19929245;4.42130175;2023-02-15T09:23:12;7.50;99.90
8780;DHT22;62328;51.19929245;4.42130175;2023-02-15T09:25:41;7.60;99.90
8780;DHT22;62328;51.19929245;4.42130175;2023-02-15T09:28:08;7.60;99.90
8780;DHT22;62328;51.19929245;4.42130175;2023-02-15T09:30:35;7.70;99.90
8780;DHT22;62328;51.19929245;4.42130175;2023-02-15T09:33:01;7.70;99.90
8780;DHT22;62328;51.19929245;4.42130175;2023-02-15T09:35:28;7.80;99.90
8780;DHT22;62328;51.19929245;4.42130175;2023-02-15T09:37:55;7.90;99.90
8780;DHT22;62328;51.19929245;4.42130175;2023-02-15T09:40:23;8.10;99.90
8780;DHT22;62328;51.19929245;4.42130175;2023-02-15T09:43:14;8.20;99.90
8780;DHT22;62328;51.19929245;4.42130175;2023-02-15T09:46:17;8.30;99.90
8780;DHT22;62328;51.19929245;4.42130175;2023-02-15T09:48:49;8.40;99.90
8780;DHT22;62328;51.19929245;4.42130175;2023-02-15T09:51:47;8.40;99.90
8780;DHT22;62328;51.19929245;4.42130175;2023-02-15T09:54:32;8.50;99.90
8780;DHT22;62328;51.19929245;4.42130175;2023-02-15T09:57:08;8.50;99.90
8780;DHT22;62328;51.19929245;4.42130175;2023-02-15T09:59:40;8.60;99.90
8780;DHT22;62328;51.19929245;4.42130175;2023-02-15T10:02:23;8.60;99.90
8780;DHT22;62328;51.19929245;4.42130175;2023-02-15T10:05:02;8.70;99.90
8780;DHT22;62328;51.19929245;4.42130175;2023-02-15T10:07:46;8.70;99.90
8780;DHT22;62328;51.19929245;4.42130175;2023-02-15T10:10:26;8.70;99.90
8780;DHT22;62328;51.19929245;4.42130175;2023-02-15T10:13:08;8.80;99.90
8780;DHT22;62328;51.19929245;4.42130175;2023-02-15T10:15:50;8.80;99.90
8780;DHT22;62328;51.19929245;4.42130175;2023-02-15T10:18:53;8.90;99.90
8780;DHT22;62328;51.19929245;4.42130175;2023-02-15T10:21:32;9.00;99.90
8780;DHT22;62328;51.19929245;4.42130175;2023-02-15T10:24:33;9.10;99.90
8780;DHT22;62328;51.19929245;4.42130175;2023-02-15T10:27:09;9.30;99.90
8780;DHT22;62328;51.19929245;4.42130175;2023-02-15T10:29:45;9.40;99.90
8780;DHT22;62328;51.19929245;4.42130175;2023-02-15T10:32:22;9.40;99.90
8780;DHT22;62328;51.19929245;4.42130175;2023-02-15T10:34:51;9.50;99.90
8780;DHT22;62328;51.19929245;4.42130175;2023-02-15T10:37:51;9.60;99.90
8780;DHT22;62328;51.19929245;4.42130175;2023-02-15T10:40:28;9.70;99.90
8780;DHT22;62328;51.19929245;4.42130175;2023-02-15T10:43:10;9.80;99.90
8780;DHT22;62328;51.19929245;4.42130175;2023-02-15T10:45:51;9.80;99.90
8780;DHT22;62328;51.19929245;4.42130175;2023-02-15T10:48:50;9.90;99.90
8780;DHT22;62328;51.19929245;4.42130175;2023-02-15T10:51:26;9.90;99.90
8780;DHT22;62328;51.19929245;4.42130175;2023-02-15T10:54:05;10.10;99.90
8780;DHT22;62328;51.19929245;4.42130175;2023-02-15T10:56:38;10.20;99.90
8780;DHT22;62328;51.19929245;4.42130175;2023-02-15T10:59:26;10.30;99.90
8780;DHT22;62328;51.19929245;4.42130175;2023-02-15T11:02:02;10.30;99.90
8780;DHT22;62328;51.19929245;4.42130175;2023-02-15T11:04:45;10.30;99.90
8780;DHT22;62328;51.19929245;4.42130175;2023-02-15T11:07:18;10.40;99.90
8780;DHT22;62328;51.19929245;4.42130175;2023-02-15T11:09:48;10.40;99.90
8780;DHT22;62328;51.19929245;4.42130175;2023-02-15T11:12:17;10.40;99.90
8780;DHT22;62328;51.19929245;4.42130175;2023-02-15T11:14:50;10.50;99.90
8780;DHT22;62328;51.19929245;4.42130175;2023-02-15T11:17:24;10.60;99.90
8780;DHT22;62328;51.19929245;4.42130175;2023-02-15T11:19:56;10.70;99.90
8780;DHT22;62328;51.19929245;4.42130175;2023-02-15T11:22:26;10.70;99.90
8780;DHT22;62328;51.19929245;4.42130175;2023-02-15T11:24:54;10.70;99.90
8780;DHT22;62328;51.19929245;4.42130175;2023-02-15T11:27:25;10.80;99.90
8780;DHT22;62328;51.19929245;4.42130175;2023-02-15T11:29:58;10.90;99.90
8780;DHT22;62328;51.19929245;4.42130175;2023-02-15T11:32:29;11.00;99.90
8780;DHT22;62328;51.19929245;4.42130175;2023-02-15T11:35:01;10.90;99.90
8780;DHT22;62328;51.19929245;4.42130175;2023-02-15T11:37:33;10.90;99.90
8780;DHT22;62328;51.19929245;4.42130175;2023-02-15T11:40:03;11.00;99.90
8780;DHT22;62328;51.19929245;4.42130175;2023-02-15T11:42:33;11.00;99.90
8780;DHT22;62328;51.19929245;4.42130175;2023-02-15T11:45:06;11.00;99.90
8780;DHT22;62328;51.19929245;4.42130175;2023-02-15T11:47:42;11.00;99.90
8780;DHT22;62328;51.19929245;4.42130175;2023-02-15T11:50:12;11.00;99.90
8780;DHT22;62328;51.19929245;4.42130175;2023-02-15T11:52:40;11.00;99.90
8780;DHT22;62328;51.19929245;4.42130175;2023-02-15T11:55:12;11.00;99.90
8780;DHT22;62328;51.19929245;4.42130175;2023-02-15T11:57:43;11.00;99.90
8780;DHT22;62328;51.19929245;4.42130175;2023-02-15T12:00:16;11.20;99.90
8780;DHT22;62328;51.19929245;4.42130175;2023-02-15T12:02:52;11.20;99.90
8780;DHT22;62328;51.19929245;4.42130175;2023-02-15T12:05:22;11.20;99.90
8780;DHT22;62328;51.19929245;4.42130175;2023-02-15T12:07:54;11.20;99.90
8780;DHT22;62328;51.19929245;4.42130175;2023-02-15T12:10:24;11.20;99.90
8780;DHT22;62328;51.19929245;4.42130175;2023-02-15T12:13:09;11.10;99.90
8780;DHT22;62328;51.19929245;4.42130175;2023-02-15T12:15:38;11.20;99.90
8780;DHT22;62328;51.19929245;4.42130175;2023-02-15T12:18:23;11.20;99.90
8780;DHT22;62328;51.19929245;4.42130175;2023-02-15T12:21:05;11.30;99.90
8780;DHT22;62328;51.19929245;4.42130175;2023-02-15T12:23:47;11.20;99.90
8780;DHT22;62328;51.19929245;4.42130175;2023-02-15T12:26:23;11.20;99.90
8780;DHT22;62328;51.19929245;4.42130175;2023-02-15T12:28:52;11.30;99.90
8780;DHT22;62328;51.19929245;4.42130175;2023-02-15T12:31:27;11.50;99.90
8780;DHT22;62328;51.19929245;4.42130175;2023-02-15T12:34:00;11.50;99.90
8780;DHT22;62328;51.19929245;4.42130175;2023-02-15T12:36:30;11.60;99.90
8780;DHT22;62328;51.19929245;4.42130175;2023-02-15T12:39:16;11.60;99.90
8780;DHT22;62328;51.19929245;4.42130175;2023-02-15T12:41:46;11.60;99.90
8780;DHT22;62328;51.19929245;4.42130175;2023-02-15T12:44:24;11.60;99.90
8780;DHT22;62328;51.19929245;4.42130175;2023-02-15T12:47:00;11.60;99.90
8780;DHT22;62328;51.19929245;4.42130175;2023-02-15T12:49:29;11.60;99.90
8780;DHT22;62328;51.19929245;4.42130175;2023-02-15T12:51:58;11.60;99.90
8780;DHT22;62328;51.19929245;4.42130175;2023-02-15T12:54:35;11.60;99.90
8780;DHT22;62328;51.19929245;4.42130175;2023-02-15T12:57:22;11.70;99.90
8780;DHT22;62328;51.19929245;4.42130175;2023-02-15T12:59:52;11.80;99.90
8780;DHT22;62328;51.19929245;4.42130175;2023-02-15T13:02:27;11.80;99.90
8780;DHT22;62328;51.19929245;4.42130175;2023-02-15T13:04:57;11.90;99.90
8780;DHT22;62328;51.19929245;4.42130175;2023-02-15T13:07:30;11.90;99.90
8780;DHT22;62328;51.19929245;4.42130175;2023-02-15T13:09:58;11.90;99.90
8780;DHT22;62328;51.19929245;4.42130175;2023-02-15T13:12:27;11.90;99.90
8780;DHT22;62328;51.19929245;4.42130175;2023-02-15T13:14:57;12.00;99.90
8780;DHT22;62328;51.19929245;4.42130175;2023-02-15T13:17:26;12.10;99.90
8780;DHT22;62328;51.19929245;4.42130175;2023-02-15T13:19:59;12.20;99.90
8780;DHT22;62328;51.19929245;4.42130175;2023-02-15T13:22:33;12.30;99.90
8780;DHT22;62328;51.19929245;4.42130175;2023-02-15T13:25:04;12.20;99.90
8780;DHT22;62328;51.19929245;4.42130175;2023-02-15T13:27:36;12.30;99.90
8780;DHT22;62328;51.19929245;4.42130175;2023-02-15T13:30:18;12.30;99.90
8780;DHT22;62328;51.19929245;4.42130175;2023-02-15T13:32:49;12.30;99.90
8780;DHT22;62328;51.19929245;4.42130175;2023-02-15T13:35:20;12.40;99.90
8780;DHT22;62328;51.19929245;4.42130175;2023-02-15T13:38:21;12.30;99.90
8780;DHT22;62328;51.19929245;4.42130175;2023-02-15T13:40:53;12.30;99.90
8780;DHT22;62328;51.19929245;4.42130175;2023-02-15T13:43:33;12.30;99.90
8780;DHT22;62328;51.19929245;4.42130175;2023-02-15T13:46:18;12.30;99.90
8780;DHT22;62328;51.19929245;4.42130175;2023-02-15T13:48:55;12.40;99.90
8780;DHT22;62328;51.19929245;4.42130175;2023-02-15T13:51:35;12.40;99.90
8780;DHT22;62328;51.19929245;4.42130175;2023-02-15T13:54:23;12.30;99.90
8780;DHT22;62328;51.19929245;4.42130175;2023-02-15T13:57:03;12.30;99.90
8780;DHT22;62328;51.19929245;4.42130175;2023-02-15T13:59:48;12.40;99.90
8780;DHT22;62328;51.19929245;4.42130175;2023-02-15T14:05:40;12.50;99.90
8780;DHT22;62328;51.19929245;4.42130175;2023-02-15T14:08:21;12.50;99.90
8780;DHT22;62328;51.19929245;4.42130175;2023-02-15T14:10:58;12.50;99.90
8780;DHT22;62328;51.19929245;4.42130175;2023-02-15T14:13:51;12.50;99.90